createdAt,value
2018-08-24T00:00:45.428Z,10.72
2018-08-24T00:03:13.802Z,11.68
2018-08-24T00:05:42.773Z,12.28
2018-08-24T00:08:13.120Z,13.28
2018-08-24T00:10:41.587Z,14.35
2018-08-24T00:13:10.236Z,12.73
2018-08-24T00:15:39.013Z,11.65
2018-08-24T00:18:07.636Z,13.28
2018-08-24T00:20:39.176Z,12.07
2018-08-24T00:23:07.843Z,13.10
2018-08-24T00:25:37.129Z,14.33
2018-08-24T00:28:06.383Z,13.15
2018-08-24T00:30:35.222Z,12.73
2018-08-24T00:33:03.747Z,13.08
2018-08-24T00:35:32.589Z,12.60
2018-08-24T00:38:03.630Z,13.10
2018-08-24T00:40:32.185Z,11.95
2018-08-24T00:43:00.853Z,11.88
2018-08-24T00:45:29.803Z,12.05
2018-08-24T00:47:58.183Z,11.20
2018-08-24T00:50:29.733Z,11.35
2018-08-24T00:52:58.502Z,13.05
2018-08-24T00:55:27.269Z,12.03
2018-08-24T00:57:57.672Z,14.87
2018-08-24T01:00:32.406Z,13.70
2018-08-24T01:03:01.625Z,13.88
2018-08-24T01:05:30.941Z,13.30
2018-08-24T01:08:05.728Z,13.85
2018-08-24T01:10:37.637Z,13.58
2018-08-24T01:13:11.812Z,12.53
2018-08-24T01:15:46.641Z,14.85
2018-08-24T01:18:28.985Z,13.48
2018-08-24T01:20:57.665Z,14.05
2018-08-24T01:23:28.674Z,15.53
2018-08-24T01:25:57.139Z,16.07
2018-08-24T01:28:27.052Z,16.23
2018-08-24T01:31:01.226Z,17.10
2018-08-24T01:33:31.240Z,16.10
2018-08-24T01:36:00.168Z,20.48
2018-08-24T01:38:28.867Z,18.60
2018-08-24T01:40:57.520Z,11.30
2018-08-24T01:43:26.892Z,10.72
2018-08-24T01:46:01.050Z,9.03
2018-08-24T01:55:30.327Z,6.05
2018-08-24T01:57:58.976Z,5.55
2018-08-24T02:00:28.640Z,4.70
2018-08-24T02:02:57.283Z,4.85
2018-08-24T02:05:26.095Z,6.60
2018-08-24T02:07:56.785Z,4.87
2018-08-24T02:10:28.614Z,4.87
2018-08-24T02:13:03.395Z,4.85
2018-08-24T02:15:32.054Z,5.33
2018-08-24T02:19:09.194Z,4.30
2018-08-24T02:21:43.655Z,6.72
2018-08-24T02:24:13.322Z,8.73
2018-08-24T02:26:43.544Z,6.97
2018-08-24T02:29:12.293Z,8.23
2018-08-24T02:31:46.404Z,10.30
2018-08-24T02:34:16.086Z,10.40
2018-08-24T02:36:45.846Z,10.53
2018-08-24T02:39:17.120Z,9.95
2018-08-24T02:41:45.708Z,10.23
2018-08-24T02:44:14.921Z,12.60
2018-08-24T02:46:44.937Z,13.00
2018-08-24T02:49:14.012Z,12.28
2018-08-24T02:51:42.850Z,11.33
2018-08-24T02:54:11.359Z,10.28
2018-08-24T02:56:40.094Z,14.05
2018-08-24T02:59:11.668Z,12.33
2018-08-24T03:01:40.369Z,13.40
2018-08-24T03:04:09.078Z,12.65
2018-08-24T03:06:37.813Z,15.25
2018-08-24T03:09:08.782Z,14.95
2018-08-24T03:11:37.849Z,18.23
2018-08-24T03:14:06.893Z,13.00
2018-08-24T03:16:37.394Z,13.10
2018-08-24T03:19:06.690Z,17.35
2018-08-24T03:21:35.433Z,11.28
2018-08-24T03:24:07.039Z,12.43
2018-08-24T03:26:35.790Z,9.93
2018-08-24T03:29:04.601Z,9.48
2018-08-24T03:31:34.256Z,10.05
2018-08-24T03:34:02.921Z,6.90
2018-08-24T03:36:31.756Z,8.35
2018-08-24T03:39:00.516Z,8.10
2018-08-24T03:41:29.124Z,10.72
2018-08-24T03:43:57.784Z,6.97
2018-08-24T03:46:26.448Z,9.40
2018-08-24T03:48:54.902Z,4.17
2018-08-24T03:51:23.550Z,7.05
2018-08-24T03:53:52.297Z,9.08
2018-08-24T03:56:20.953Z,8.15
2018-08-24T03:58:50.089Z,9.70
2018-08-24T04:01:21.708Z,5.78
2018-08-24T04:03:51.314Z,9.45
2018-08-24T04:06:21.125Z,5.42
2018-08-24T04:08:49.644Z,7.25
2018-08-24T04:11:19.777Z,7.08
2018-08-24T04:13:49.104Z,11.18
2018-08-24T04:16:17.720Z,7.90
2018-08-24T04:18:46.244Z,9.03
2018-08-24T04:21:14.789Z,9.90
2018-08-24T04:23:43.616Z,8.63
2018-08-24T04:26:12.299Z,8.93
2018-08-24T04:28:40.990Z,8.78
2018-08-24T04:31:10.315Z,10.15
2018-08-24T04:33:40.277Z,11.25
2018-08-24T04:36:10.062Z,10.45
2018-08-24T04:38:38.628Z,6.28
2018-08-24T04:41:08.410Z,8.28
2018-08-24T04:43:37.738Z,9.43
2018-08-24T04:46:06.871Z,6.65
2018-08-24T04:48:36.753Z,9.08
2018-08-24T04:51:05.460Z,7.60
2018-08-24T04:53:34.203Z,6.00
2018-08-24T04:56:02.977Z,7.80
2018-08-24T04:58:31.938Z,8.75
2018-08-24T05:01:01.258Z,8.78
2018-08-24T05:03:29.892Z,4.12
2018-08-24T05:05:59.255Z,9.63
2018-08-24T05:08:28.489Z,9.43
2018-08-24T05:10:57.071Z,5.72
2018-08-24T05:13:25.913Z,8.00
2018-08-24T05:15:54.717Z,6.05
2018-08-24T05:19:53.420Z,7.17
2018-08-24T05:22:21.760Z,8.23
2018-08-24T05:24:50.667Z,6.22
2018-08-24T05:27:19.646Z,8.88
2018-08-24T05:29:49.475Z,6.67
2018-08-24T05:32:18.637Z,9.15
2018-08-24T05:34:47.167Z,7.12
2018-08-24T05:37:15.792Z,5.30
2018-08-24T05:39:44.468Z,5.15
2018-08-24T05:42:13.275Z,8.88
2018-08-24T05:44:42.248Z,7.87
2018-08-24T05:47:10.629Z,8.83
2018-08-24T05:49:39.737Z,8.60
2018-08-24T05:52:09.152Z,8.38
2018-08-24T05:54:37.603Z,6.72
2018-08-24T05:57:11.724Z,8.20
2018-08-24T05:59:40.865Z,5.37
2018-08-24T06:02:09.484Z,9.90
2018-08-24T06:04:43.609Z,7.75
2018-08-24T06:07:12.656Z,10.68
2018-08-24T06:09:41.399Z,9.73
2018-08-24T06:12:10.041Z,5.65
2018-08-24T06:14:39.120Z,3.45
2018-08-24T06:17:13.804Z,5.58
2018-08-24T06:19:43.262Z,7.67
2018-08-24T06:22:12.749Z,8.58
2018-08-24T06:24:42.402Z,8.58
2018-08-24T06:27:11.187Z,4.50
2018-08-24T06:29:39.896Z,10.82
2018-08-24T06:32:08.668Z,6.60
2018-08-24T06:34:37.724Z,10.88
2018-08-24T06:37:06.595Z,5.40
2018-08-24T06:39:36.186Z,6.15
2018-08-24T06:42:05.178Z,5.62
2018-08-24T06:44:34.734Z,4.95
2018-08-24T06:47:03.400Z,5.03
2018-08-24T06:49:32.697Z,6.40
2018-08-24T06:52:02.613Z,6.25
2018-08-24T06:54:31.387Z,4.75
2018-08-24T06:57:00.088Z,5.37
2018-08-24T06:59:29.890Z,6.05
2018-08-24T07:01:59.237Z,7.80
2018-08-24T07:04:28.521Z,7.17
2018-08-24T07:06:57.152Z,6.90
2018-08-24T07:09:29.757Z,8.30
2018-08-24T07:11:59.058Z,7.40
2018-08-24T07:14:28.581Z,3.58
2018-08-24T07:16:59.946Z,4.75
2018-08-24T07:19:29.763Z,6.95
2018-08-24T07:21:58.637Z,7.45
2018-08-24T07:24:27.146Z,5.28
2018-08-24T07:26:56.412Z,6.15
2018-08-24T07:29:24.845Z,7.15
2018-08-24T07:31:53.414Z,9.70
2018-08-24T07:34:21.966Z,5.67
2018-08-24T07:36:50.885Z,5.35
2018-08-24T07:39:19.378Z,3.90
2018-08-24T07:41:48.117Z,7.25
2018-08-24T07:44:17.596Z,4.28
2018-08-24T07:46:46.278Z,6.05
2018-08-24T07:49:14.954Z,4.35
2018-08-24T07:51:43.567Z,10.03
2018-08-24T07:54:12.473Z,5.85
2018-08-24T07:56:41.002Z,5.87
2018-08-24T07:59:09.796Z,4.08
2018-08-24T08:01:39.021Z,7.35
2018-08-24T08:04:08.105Z,5.00
2018-08-24T08:06:36.904Z,9.55
2018-08-24T08:09:07.255Z,5.87
2018-08-24T08:11:40.008Z,5.37
2018-08-24T08:14:11.391Z,6.92
2018-08-24T08:16:42.838Z,5.78
2018-08-24T08:19:11.652Z,6.50
2018-08-24T08:21:43.195Z,6.30
2018-08-24T08:24:14.828Z,5.10
2018-08-24T08:26:43.470Z,6.03
2018-08-24T08:29:20.381Z,7.85
2018-08-24T08:31:49.765Z,6.95
2018-08-24T08:34:18.197Z,10.35
2018-08-24T08:36:48.027Z,6.12
2018-08-24T08:39:16.531Z,7.08
2018-08-24T08:41:45.793Z,7.95
2018-08-24T08:44:15.567Z,4.45
2018-08-24T08:46:44.768Z,8.75
2018-08-24T08:49:16.851Z,5.60
2018-08-24T08:51:51.471Z,3.98
2018-08-24T08:54:26.285Z,5.45
2018-08-24T08:56:55.406Z,4.37
2018-08-24T08:59:23.983Z,6.90
2018-08-24T09:01:56.317Z,4.15
2018-08-24T09:04:27.509Z,4.78
2018-08-24T09:06:57.393Z,4.10
2018-08-24T09:09:25.844Z,6.58
2018-08-24T09:11:57.598Z,2.62
2018-08-24T09:14:26.194Z,2.75
2018-08-24T09:17:13.010Z,5.20
2018-08-24T09:19:46.553Z,4.50
2018-08-24T09:22:22.195Z,5.70
2018-08-24T09:24:57.144Z,2.60
2018-08-24T09:27:34.740Z,3.67
2018-08-24T09:30:04.575Z,4.15
2018-08-24T09:32:33.912Z,3.98
2018-08-24T09:35:02.567Z,7.47
2018-08-24T09:37:37.535Z,4.37
2018-08-24T09:40:06.755Z,5.12
2018-08-24T09:42:35.689Z,4.20
2018-08-24T09:45:04.556Z,4.33
2018-08-24T09:47:38.443Z,5.55
2018-08-24T09:50:13.191Z,6.95
2018-08-24T09:52:46.388Z,6.83
2018-08-24T09:55:15.241Z,4.70
2018-08-24T09:57:43.837Z,3.83
2018-08-24T10:00:12.484Z,6.92
2018-08-24T10:02:43.520Z,4.92
2018-08-24T10:05:17.478Z,4.50
2018-08-24T10:07:51.898Z,7.55
2018-08-24T10:10:21.057Z,8.03
2018-08-24T10:12:49.661Z,5.05
2018-08-24T10:15:18.375Z,5.10
2018-08-24T10:17:47.967Z,4.47
2018-08-24T10:20:16.548Z,4.72
2018-08-24T10:22:44.976Z,4.47
2018-08-24T10:25:14.882Z,6.85
2018-08-24T10:27:43.678Z,6.47
2018-08-24T10:30:12.838Z,4.08
2018-08-24T10:32:42.086Z,5.35
2018-08-24T10:35:11.645Z,3.92
2018-08-24T10:37:40.395Z,5.60
2018-08-24T10:40:09.950Z,3.30
2018-08-24T10:42:39.178Z,3.47
2018-08-24T10:45:07.473Z,2.85
2018-08-24T10:47:36.272Z,2.50
2018-08-24T10:50:05.169Z,7.15
2018-08-24T10:52:33.784Z,3.80
2018-08-24T10:55:02.469Z,4.53
2018-08-24T10:57:31.055Z,3.35
2018-08-24T10:59:59.819Z,7.00
2018-08-24T11:02:28.603Z,3.25
2018-08-24T11:04:57.756Z,4.28
2018-08-24T11:07:26.952Z,4.45
2018-08-24T11:09:55.630Z,5.30
2018-08-24T11:12:28.334Z,5.28
2018-08-24T11:14:57.047Z,3.22
2018-08-24T11:17:26.410Z,5.25
2018-08-24T11:19:55.022Z,4.72
2018-08-24T11:22:23.717Z,5.97
2018-08-24T11:24:52.611Z,4.00
2018-08-24T11:27:21.184Z,6.30
2018-08-24T11:29:50.279Z,4.55
2018-08-24T11:32:19.310Z,1.98
2018-08-24T11:34:48.099Z,6.37
2018-08-24T11:37:16.893Z,2.72
2018-08-24T11:39:45.380Z,3.00
2018-08-24T11:42:17.552Z,3.98
2018-08-24T11:44:46.704Z,4.90
2018-08-24T11:47:19.068Z,8.00
2018-08-24T11:49:49.946Z,3.60
2018-08-24T11:52:20.137Z,3.87
2018-08-24T11:54:48.906Z,6.42
2018-08-24T11:57:17.714Z,2.40
2018-08-24T11:59:46.312Z,4.25
2018-08-24T12:02:16.143Z,4.37
2018-08-24T12:04:44.692Z,1.50
2018-08-24T12:07:13.453Z,2.12
2018-08-24T12:09:42.098Z,3.17
2018-08-24T12:12:10.909Z,1.67
2018-08-24T12:14:39.494Z,2.72
2018-08-24T12:17:09.794Z,3.90
2018-08-24T12:19:39.177Z,1.82
2018-08-24T12:22:07.678Z,2.12
2018-08-24T12:24:36.832Z,3.55
2018-08-24T12:27:05.157Z,4.35
2018-08-24T12:29:33.865Z,4.87
2018-08-24T12:32:02.709Z,3.08
2018-08-24T12:34:31.787Z,3.65
2018-08-24T12:37:00.846Z,3.77
2018-08-24T12:39:29.397Z,4.10
2018-08-24T12:41:58.511Z,3.25
2018-08-24T12:44:26.912Z,6.05
2018-08-24T12:46:55.762Z,3.27
2018-08-24T12:49:24.552Z,3.85
2018-08-24T12:51:53.379Z,3.85
2018-08-24T12:54:22.076Z,7.17
2018-08-24T12:56:50.732Z,2.60
2018-08-24T12:59:19.379Z,1.85
2018-08-24T13:01:48.130Z,4.67
2018-08-24T13:04:16.824Z,2.37
2018-08-24T13:06:45.709Z,3.33
2018-08-24T13:09:14.143Z,3.00
2018-08-24T13:11:42.833Z,3.52
2018-08-24T13:14:11.595Z,3.95
2018-08-24T13:16:40.141Z,3.27
2018-08-24T13:19:09.129Z,3.08
2018-08-24T13:21:37.697Z,2.00
2018-08-24T13:24:06.612Z,2.72
2018-08-24T13:26:35.190Z,3.27
2018-08-24T13:29:04.541Z,2.17
2018-08-24T13:31:33.003Z,3.15
2018-08-24T13:34:01.914Z,4.10
2018-08-24T13:43:28.652Z,3.75
2018-08-24T13:45:57.184Z,2.25
2018-08-24T13:48:25.943Z,2.02
2018-08-24T13:50:54.881Z,4.00
2018-08-24T13:53:23.621Z,2.17
2018-08-24T13:55:52.846Z,6.42
2018-08-24T13:58:21.089Z,1.98
2018-08-24T14:00:50.497Z,3.22
2018-08-24T14:03:19.941Z,1.42
2018-08-24T14:05:48.680Z,3.67
2018-08-24T14:08:18.578Z,3.40
2018-08-24T14:10:47.225Z,2.00
2018-08-24T14:13:16.034Z,4.95
2018-08-24T14:15:44.490Z,3.42
2018-08-24T14:18:18.517Z,2.52
2018-08-24T14:20:47.783Z,2.22
2018-08-24T14:23:18.011Z,6.40
2018-08-24T14:25:46.665Z,1.75
2018-08-24T14:28:15.436Z,4.65
2018-08-24T14:30:44.026Z,3.33
2018-08-24T14:33:12.706Z,3.10
2018-08-24T14:35:41.454Z,4.97
2018-08-24T14:38:10.150Z,3.67
2018-08-24T14:40:38.924Z,1.95
2018-08-24T14:43:07.705Z,2.70
2018-08-24T14:45:36.480Z,4.45
2018-08-24T14:48:05.242Z,2.87
2018-08-24T14:50:33.957Z,2.65
2018-08-24T14:53:02.537Z,2.05
2018-08-24T14:55:31.252Z,2.15
2018-08-24T14:58:00.412Z,2.70
2018-08-24T15:00:29.577Z,1.15
2018-08-24T15:02:59.459Z,1.50
2018-08-24T15:05:28.611Z,1.70
2018-08-24T15:07:57.200Z,3.60
2018-08-24T15:10:26.116Z,3.42
2018-08-24T15:12:55.491Z,3.77
2018-08-24T15:15:24.038Z,2.60
2018-08-24T15:17:52.786Z,2.33
2018-08-24T15:20:21.396Z,2.67
2018-08-24T15:22:50.229Z,3.02
2018-08-24T15:25:18.697Z,1.98
2018-08-24T15:27:47.961Z,2.72
2018-08-24T15:30:16.423Z,5.70
2018-08-24T15:32:45.019Z,3.10
2018-08-24T15:35:13.682Z,2.25
2018-08-24T15:37:42.360Z,3.40
2018-08-24T15:40:12.329Z,4.50
2018-08-24T15:42:40.707Z,3.42
2018-08-24T15:45:09.448Z,4.47
2018-08-24T15:47:38.221Z,6.90
2018-08-24T15:50:06.956Z,3.45
2018-08-24T15:52:35.601Z,3.02
2018-08-24T15:55:04.275Z,3.22
2018-08-24T15:57:32.853Z,4.42
2018-08-24T16:00:01.737Z,3.67
2018-08-24T16:02:30.322Z,2.45
2018-08-24T16:04:58.932Z,2.87
2018-08-24T16:07:27.625Z,4.12
2018-08-24T16:09:56.493Z,4.42
2018-08-24T16:12:25.370Z,3.33
2018-08-24T16:14:54.026Z,5.80
2018-08-24T16:17:22.889Z,2.62
2018-08-24T16:19:51.750Z,4.05
2018-08-24T16:22:20.475Z,2.47
2018-08-24T16:24:49.038Z,4.28
2018-08-24T16:27:17.754Z,3.33
2018-08-24T16:29:46.522Z,3.30
2018-08-24T16:32:16.209Z,2.55
2018-08-24T16:34:44.892Z,2.02
2018-08-24T16:37:13.650Z,2.60
2018-08-24T16:39:42.260Z,5.03
2018-08-24T16:42:10.873Z,1.52
2018-08-24T16:44:39.605Z,2.75
2018-08-24T16:47:08.109Z,3.67
2018-08-24T16:49:36.733Z,5.28
2018-08-24T16:52:05.389Z,3.58
2018-08-24T16:54:34.292Z,2.90
2018-08-24T16:57:03.183Z,4.97
2018-08-24T16:59:31.686Z,4.08
2018-08-24T17:02:00.335Z,2.33
2018-08-24T17:04:29.049Z,4.92
2018-08-24T17:06:57.740Z,3.55
2018-08-24T17:09:26.382Z,1.77
2018-08-24T17:11:56.165Z,2.08
2018-08-24T17:14:25.623Z,3.35
2018-08-24T17:16:54.210Z,2.95
2018-08-24T17:19:22.853Z,3.12
2018-08-24T17:21:51.735Z,3.87
2018-08-24T17:24:21.017Z,2.65
2018-08-24T17:26:49.701Z,4.47
2018-08-24T17:29:18.475Z,4.05
2018-08-24T17:31:47.067Z,1.77
2018-08-24T17:34:15.591Z,4.90
2018-08-24T17:36:44.314Z,3.40
2018-08-24T17:39:13.314Z,4.05
2018-08-24T17:41:42.710Z,2.35
2018-08-24T17:44:11.169Z,4.87
2018-08-24T17:46:40.838Z,2.72
2018-08-24T17:49:09.392Z,3.35
2018-08-24T17:51:39.209Z,2.55
2018-08-24T17:54:08.084Z,1.30
2018-08-24T17:56:38.588Z,1.22
2018-08-24T17:59:09.356Z,1.17
2018-08-24T18:01:39.611Z,0.50
2018-08-24T18:04:08.267Z,1.12
2018-08-24T18:06:36.865Z,1.75
2018-08-24T18:09:08.149Z,1.55
2018-08-24T18:11:36.674Z,0.80
2018-08-24T18:14:06.705Z,0.95
2018-08-24T18:16:35.892Z,0.72
2018-08-24T18:19:05.103Z,0.40
2018-08-24T18:21:34.976Z,1.07
2018-08-24T18:24:04.111Z,0.70
2018-08-24T18:26:32.790Z,1.17
2018-08-24T18:29:02.099Z,1.42
2018-08-24T18:31:31.247Z,3.75
2018-08-24T18:34:00.406Z,2.70
2018-08-24T18:36:36.354Z,4.95
2018-08-24T18:39:10.563Z,3.33
2018-08-24T18:41:45.372Z,5.90
2018-08-24T18:44:14.974Z,8.23
2018-08-24T18:47:02.241Z,6.28
2018-08-24T18:49:48.853Z,4.92
2018-08-24T18:52:37.187Z,2.50
2018-08-24T18:55:20.816Z,3.22
2018-08-24T18:58:02.901Z,5.62
2018-08-24T19:00:41.523Z,3.72
2018-08-24T19:03:22.566Z,7.30
2018-08-24T19:06:08.717Z,3.70
2018-08-24T19:08:41.120Z,1.75
2018-08-24T19:11:15.793Z,2.77
2018-08-24T19:13:47.900Z,5.60
2018-08-24T19:16:16.437Z,2.55
2018-08-24T19:18:53.304Z,2.62
2018-08-24T19:21:32.597Z,4.00
2018-08-24T19:24:01.344Z,5.37
2018-08-24T19:26:35.917Z,2.83
2018-08-24T19:29:15.557Z,1.57
2018-08-24T19:31:44.364Z,1.85
2018-08-24T19:34:13.744Z,2.08
2018-08-24T19:36:43.358Z,2.05
2018-08-24T19:39:13.686Z,2.92
2018-08-24T19:41:49.225Z,2.37
2018-08-24T19:44:17.963Z,2.45
2018-08-24T19:46:46.866Z,4.05
2018-08-24T19:49:19.003Z,3.62
2018-08-24T19:51:52.726Z,4.47
2018-08-24T19:54:23.881Z,3.00
2018-08-24T19:56:53.500Z,6.60
2018-08-24T19:59:22.039Z,11.15
2018-08-24T20:01:50.654Z,3.35
2018-08-24T20:04:20.547Z,6.20
2018-08-24T20:06:54.970Z,7.62
2018-08-24T20:10:30.187Z,5.75
2018-08-24T20:12:59.973Z,7.50
2018-08-24T20:15:40.709Z,5.85
2018-08-24T20:18:09.987Z,9.18
2018-08-24T20:20:38.665Z,8.88
2018-08-24T20:23:10.163Z,5.00
2018-08-24T20:25:44.403Z,7.08
2018-08-24T20:31:06.285Z,6.72
2018-08-24T20:33:40.265Z,6.75
2018-08-24T20:36:15.050Z,5.70
2018-08-24T20:38:45.414Z,6.55
2018-08-24T20:41:13.972Z,5.60
2018-08-24T20:43:54.755Z,5.83
2018-08-24T20:46:30.739Z,6.47
2018-08-24T20:49:01.940Z,6.40
2018-08-24T20:51:30.729Z,5.85
2018-08-24T20:54:02.369Z,5.72
2018-08-24T20:56:31.178Z,7.12
2018-08-24T20:59:09.280Z,5.28
2018-08-24T21:01:43.093Z,5.20
2018-08-24T21:04:18.100Z,5.35
2018-08-24T21:06:52.713Z,3.75
2018-08-24T21:09:32.911Z,7.58
2018-08-24T21:12:02.914Z,6.70
2018-08-24T21:14:45.021Z,5.90
2018-08-24T21:17:18.087Z,6.00
2018-08-24T21:19:52.864Z,3.22
2018-08-24T21:22:21.503Z,8.48
2018-08-24T21:25:02.084Z,5.70
2018-08-24T21:27:40.286Z,4.15
2018-08-24T21:30:25.717Z,4.92
2018-08-24T21:32:54.106Z,6.42
2018-08-24T21:35:28.679Z,3.92
2018-08-24T21:38:00.514Z,7.53
2018-08-24T21:40:32.105Z,4.10
2018-08-24T21:43:06.335Z,3.92
2018-08-24T21:45:42.878Z,2.00
2018-08-24T21:48:25.211Z,5.45
2018-08-24T21:51:07.526Z,4.75
2018-08-24T21:53:36.475Z,5.17
2018-08-24T21:56:19.801Z,6.17
2018-08-24T21:58:48.768Z,4.80
2018-08-24T22:01:18.456Z,3.55
2018-08-24T22:07:00.923Z,5.97
2018-08-24T22:09:46.242Z,5.15
2018-08-24T22:12:22.692Z,4.87
2018-08-24T22:14:56.680Z,3.98
2018-08-24T22:17:32.462Z,2.60
2018-08-24T22:20:01.900Z,2.30
2018-08-24T22:22:33.657Z,3.08
2018-08-24T22:25:03.084Z,3.42
2018-08-24T22:27:31.819Z,2.75
2018-08-24T22:30:03.723Z,2.90
2018-08-24T22:32:32.435Z,2.85
2018-08-24T22:35:01.144Z,2.17
2018-08-24T22:37:32.865Z,2.22
2018-08-24T22:40:02.535Z,1.90
2018-08-24T22:45:35.606Z,3.70
2018-08-24T22:48:09.721Z,1.42
2018-08-24T22:50:49.877Z,2.75
2018-08-24T22:53:28.277Z,1.50
2018-08-24T22:56:04.758Z,1.37
2018-08-24T22:58:36.049Z,1.57
2018-08-24T23:01:12.329Z,2.20
2018-08-24T23:03:46.832Z,2.50
2018-08-24T23:06:34.104Z,2.20
2018-08-24T23:09:15.485Z,1.87
2018-08-24T23:12:02.230Z,3.35
2018-08-24T23:14:38.153Z,2.92
2018-08-24T23:20:00.044Z,1.67
2018-08-24T23:22:32.184Z,2.15
2018-08-24T23:25:01.484Z,1.50
2018-08-24T23:27:39.628Z,1.30
2018-08-24T23:30:09.101Z,2.17
2018-08-24T23:32:37.790Z,3.00
2018-08-24T23:35:12.104Z,1.37
2018-08-24T23:37:42.027Z,2.27
2018-08-24T23:40:10.931Z,1.10
2018-08-24T23:42:45.050Z,2.25
2018-08-24T23:45:26.164Z,1.17
2018-08-24T23:48:06.825Z,1.50
2018-08-24T23:50:42.880Z,1.27
2018-08-24T23:53:24.312Z,1.35
2018-08-24T23:56:00.525Z,2.33
2018-08-24T23:58:41.852Z,4.37
